createdAt,value
2023-04-20T00:00:54.697Z,5.90
2023-04-20T00:03:22.137Z,5.90
2023-04-20T00:05:51.965Z,5.80
2023-04-20T00:08:18.954Z,5.80
2023-04-20T00:10:46.550Z,5.80
2023-04-20T00:13:14.033Z,5.70
2023-04-20T00:15:41.211Z,5.60
2023-04-20T00:18:08.280Z,5.60
2023-04-20T00:20:35.764Z,5.70
2023-04-20T00:23:03.659Z,5.70
2023-04-20T00:25:31.638Z,5.70
2023-04-20T00:27:59.432Z,5.80
2023-04-20T00:30:26.486Z,5.90
2023-04-20T00:32:53.735Z,5.80
2023-04-20T00:35:20.762Z,5.90
2023-04-20T00:37:47.662Z,5.90
2023-04-20T00:40:14.732Z,5.80
2023-04-20T00:42:42.339Z,5.80
2023-04-20T00:45:09.954Z,5.80
2023-04-20T00:47:36.946Z,5.70
2023-04-20T00:50:04.652Z,5.70
2023-04-20T00:52:32.596Z,5.60
2023-04-20T00:54:59.634Z,5.50
2023-04-20T00:57:28.113Z,5.60
2023-04-20T00:59:55.014Z,5.50
2023-04-20T01:02:22.153Z,5.60
2023-04-20T01:04:49.301Z,5.70
2023-04-20T01:07:17.113Z,5.80
2023-04-20T01:09:44.465Z,5.90
2023-04-20T01:12:11.772Z,6.00
2023-04-20T01:14:38.963Z,6.00
2023-04-20T01:17:06.048Z,6.10
2023-04-20T01:19:34.055Z,6.20
2023-04-20T01:22:01.203Z,6.20
2023-04-20T01:24:28.082Z,6.30
2023-04-20T01:26:54.960Z,6.30
2023-04-20T01:29:21.918Z,6.30
2023-04-20T01:31:49.179Z,6.40
2023-04-20T01:34:17.763Z,6.50
2023-04-20T01:36:45.510Z,6.50
2023-04-20T01:39:12.594Z,6.50
2023-04-20T01:41:40.105Z,6.40
2023-04-20T01:44:06.962Z,6.40
2023-04-20T01:46:36.746Z,6.40
2023-04-20T01:49:03.696Z,6.40
2023-04-20T01:51:30.629Z,6.40
2023-04-20T01:53:57.512Z,6.40
2023-04-20T01:56:24.523Z,6.40
2023-04-20T01:58:51.625Z,6.40
2023-04-20T02:01:18.893Z,6.40
2023-04-20T02:03:46.719Z,6.40
2023-04-20T02:06:13.701Z,6.40
2023-04-20T02:08:41.067Z,6.40
2023-04-20T02:11:07.992Z,6.50
2023-04-20T02:13:34.946Z,6.50
2023-04-20T02:16:02.018Z,6.50
2023-04-20T02:18:30.423Z,6.50
2023-04-20T02:20:57.709Z,6.50
2023-04-20T02:23:24.642Z,6.50
2023-04-20T02:25:51.631Z,6.60
2023-04-20T02:28:18.700Z,6.70
2023-04-20T02:30:45.819Z,6.80
2023-04-20T02:33:12.832Z,6.80
2023-04-20T02:35:39.742Z,6.80
2023-04-20T02:38:06.618Z,6.80
2023-04-20T02:40:33.496Z,6.80
2023-04-20T02:43:00.334Z,6.80
2023-04-20T02:45:27.258Z,6.80
2023-04-20T02:47:54.209Z,6.80
2023-04-20T02:50:21.973Z,6.70
2023-04-20T02:52:48.803Z,6.80
2023-04-20T02:55:16.033Z,6.70
2023-04-20T02:57:42.964Z,6.70
2023-04-20T03:00:10.165Z,6.80
2023-04-20T03:02:37.896Z,6.80
2023-04-20T03:05:05.428Z,6.90
2023-04-20T03:07:32.278Z,6.80
2023-04-20T03:09:59.369Z,6.70
2023-04-20T03:12:26.742Z,6.70
2023-04-20T03:14:53.596Z,6.70
2023-04-20T03:17:21.058Z,6.60
2023-04-20T03:19:48.026Z,6.70
2023-04-20T03:22:14.898Z,6.60
2023-04-20T03:24:41.765Z,6.60
2023-04-20T03:27:08.605Z,6.60
2023-04-20T03:29:35.864Z,6.70
2023-04-20T03:32:03.729Z,6.70
2023-04-20T03:34:30.599Z,6.80
2023-04-20T03:36:57.800Z,6.70
2023-04-20T03:39:24.781Z,6.70
2023-04-20T03:41:51.737Z,6.80
2023-04-20T03:44:18.548Z,6.80
2023-04-20T03:46:45.927Z,6.80
2023-04-20T03:49:12.832Z,6.90
2023-04-20T03:51:39.722Z,7.00
2023-04-20T03:54:06.659Z,7.00
2023-04-20T03:56:33.656Z,7.10
2023-04-20T03:59:00.938Z,7.20
2023-04-20T04:01:28.062Z,7.20
2023-04-20T04:03:55.019Z,7.30
2023-04-20T04:06:22.023Z,7.30
2023-04-20T04:08:49.173Z,7.30
2023-04-20T04:11:15.986Z,7.40
2023-04-20T04:13:42.917Z,7.40
2023-04-20T04:16:09.763Z,7.50
2023-04-20T04:18:36.651Z,7.50
2023-04-20T04:21:03.786Z,7.40
2023-04-20T04:23:30.917Z,7.50
2023-04-20T04:25:59.054Z,7.50
2023-04-20T04:28:26.831Z,7.60
2023-04-20T04:30:54.255Z,7.50
2023-04-20T04:33:21.975Z,7.60
2023-04-20T04:35:49.590Z,7.40
2023-04-20T04:38:16.528Z,7.40
2023-04-20T04:40:45.883Z,7.30
2023-04-20T04:43:12.806Z,7.20
2023-04-20T04:45:40.992Z,7.30
2023-04-20T04:48:12.684Z,7.30
2023-04-20T04:50:39.961Z,7.30
2023-04-20T04:53:07.297Z,7.30
2023-04-20T04:55:34.316Z,7.30
2023-04-20T04:58:01.820Z,7.30
2023-04-20T05:00:29.375Z,7.30
2023-04-20T05:02:56.924Z,7.40
2023-04-20T05:05:26.222Z,7.40
2023-04-20T05:07:53.144Z,7.50
2023-04-20T05:10:20.381Z,7.60
2023-04-20T05:12:48.966Z,7.60
2023-04-20T05:15:16.349Z,7.60
2023-04-20T05:17:43.527Z,7.60
2023-04-20T05:20:11.750Z,7.60
2023-04-20T05:22:38.964Z,7.50
2023-04-20T05:25:06.682Z,7.60
2023-04-20T05:27:37.597Z,7.60
2023-04-20T05:30:19.012Z,7.60
2023-04-20T05:32:51.167Z,7.70
2023-04-20T05:35:19.830Z,7.60
2023-04-20T05:37:47.689Z,7.50
2023-04-20T05:40:16.002Z,7.60
2023-04-20T05:42:43.019Z,7.50
2023-04-20T05:45:10.648Z,7.60
2023-04-20T05:47:37.874Z,7.60
2023-04-20T05:50:05.844Z,7.60
2023-04-20T05:52:32.720Z,7.60
2023-04-20T05:55:00.233Z,7.70
2023-04-20T05:57:27.105Z,7.80
2023-04-20T05:59:55.998Z,7.80
2023-04-20T06:02:23.168Z,7.90
2023-04-20T06:04:50.389Z,7.90
2023-04-20T06:07:17.688Z,7.90
2023-04-20T06:09:44.788Z,7.90
2023-04-20T06:12:11.721Z,7.90
2023-04-20T06:14:39.163Z,8.00
2023-04-20T06:17:06.197Z,8.10
2023-04-20T06:19:33.191Z,8.10
2023-04-20T06:22:01.142Z,8.20
2023-04-20T06:24:28.269Z,8.10
2023-04-20T06:26:55.188Z,8.10
2023-04-20T06:29:22.174Z,8.10
2023-04-20T06:31:49.059Z,8.10
2023-04-20T06:34:16.896Z,8.10
2023-04-20T06:36:43.896Z,8.10
2023-04-20T06:39:11.655Z,8.20
2023-04-20T06:41:39.407Z,8.20
2023-04-20T06:44:06.487Z,8.30
2023-04-20T06:46:34.281Z,8.20
2023-04-20T06:49:01.640Z,8.30
2023-04-20T06:51:29.194Z,8.30
2023-04-20T06:53:56.686Z,8.30
2023-04-20T06:56:23.803Z,8.30
2023-04-20T06:58:51.308Z,8.30
2023-04-20T07:01:18.285Z,8.40
2023-04-20T07:03:47.158Z,8.50
2023-04-20T07:06:14.496Z,8.60
2023-04-20T07:08:41.389Z,8.60
2023-04-20T07:11:08.375Z,8.60
2023-04-20T07:13:36.045Z,8.70
2023-04-20T07:16:03.362Z,8.60
2023-04-20T07:18:32.350Z,8.60
2023-04-20T07:21:01.344Z,8.60
2023-04-20T07:23:28.445Z,8.70
2023-04-20T07:25:55.700Z,8.80
2023-04-20T07:28:22.565Z,8.90
2023-04-20T07:30:49.384Z,9.00
2023-04-20T07:33:16.355Z,9.00
2023-04-20T07:35:43.234Z,9.10
2023-04-20T07:38:10.787Z,9.20
2023-04-20T07:40:38.007Z,9.20
2023-04-20T07:43:05.436Z,9.20
2023-04-20T07:45:32.738Z,9.10
2023-04-20T07:48:01.800Z,9.10
2023-04-20T07:50:29.625Z,9.10
2023-04-20T07:52:56.549Z,9.10
2023-04-20T07:55:23.433Z,9.10
2023-04-20T07:57:51.188Z,9.00
2023-04-20T08:00:18.729Z,9.10
2023-04-20T08:02:45.907Z,8.90
2023-04-20T08:05:13.276Z,8.90
2023-04-20T08:07:40.845Z,8.90
2023-04-20T08:10:08.362Z,9.10
2023-04-20T08:12:35.895Z,9.40
2023-04-20T08:15:06.342Z,9.70
2023-04-20T08:17:34.262Z,9.80
2023-04-20T08:20:01.387Z,10.00
2023-04-20T08:22:30.169Z,10.10
2023-04-20T08:24:58.148Z,10.20
2023-04-20T08:27:25.903Z,10.40
2023-04-20T08:29:52.992Z,10.50
2023-04-20T08:32:22.681Z,10.60
2023-04-20T08:34:50.534Z,10.70
2023-04-20T08:37:17.666Z,10.60
2023-04-20T08:39:44.581Z,10.60
2023-04-20T08:42:11.576Z,10.60
2023-04-20T08:44:38.546Z,10.40
2023-04-20T08:47:05.651Z,10.30
2023-04-20T08:49:33.996Z,10.30
2023-04-20T08:52:01.114Z,10.30
2023-04-20T08:54:28.216Z,10.20
2023-04-20T08:56:55.607Z,10.20
2023-04-20T08:59:22.620Z,10.10
2023-04-20T09:01:49.621Z,10.10
2023-04-20T09:04:21.812Z,9.90
2023-04-20T09:06:51.493Z,9.80
2023-04-20T09:09:28.206Z,9.70
2023-04-20T09:12:07.559Z,9.70
2023-04-20T09:14:45.234Z,9.80
2023-04-20T09:17:14.845Z,9.60
2023-04-20T09:19:44.897Z,9.60
2023-04-20T09:22:12.502Z,9.60
2023-04-20T09:24:42.569Z,9.70
2023-04-20T09:27:20.213Z,9.70
2023-04-20T09:30:04.215Z,9.80
2023-04-20T09:32:32.351Z,9.80
2023-04-20T09:34:59.396Z,9.90
2023-04-20T09:37:26.554Z,9.90
2023-04-20T09:39:57.470Z,9.90
2023-04-20T09:42:28.432Z,10.10
2023-04-20T09:44:57.370Z,10.20
2023-04-20T09:47:26.738Z,10.10
2023-04-20T09:49:54.881Z,9.80
2023-04-20T09:52:22.705Z,9.80
2023-04-20T09:54:52.155Z,9.70
2023-04-20T09:57:19.782Z,9.70
2023-04-20T09:59:47.289Z,9.60
2023-04-20T10:02:15.051Z,9.60
2023-04-20T10:05:02.304Z,9.50
2023-04-20T10:07:32.005Z,9.50
2023-04-20T10:10:09.082Z,9.40
2023-04-20T10:12:49.398Z,9.40
2023-04-20T10:15:16.887Z,9.30
2023-04-20T10:17:44.577Z,9.20
2023-04-20T10:20:21.594Z,9.20
2023-04-20T10:22:48.746Z,9.00
2023-04-20T10:25:40.366Z,9.10
2023-04-20T10:28:10.496Z,9.00
2023-04-20T10:30:38.285Z,8.90
2023-04-20T10:33:06.906Z,8.80
2023-04-20T10:35:55.228Z,8.70
2023-04-20T10:38:33.873Z,8.70
2023-04-20T10:41:08.701Z,9.00
2023-04-20T10:43:36.077Z,9.50
2023-04-20T10:46:03.275Z,10.00
2023-04-20T10:48:30.226Z,10.30
2023-04-20T10:50:57.137Z,10.50
2023-04-20T10:53:24.353Z,10.70
2023-04-20T10:56:01.270Z,10.70
2023-04-20T10:58:28.373Z,10.60
2023-04-20T11:01:03.369Z,10.40
2023-04-20T11:03:32.939Z,10.30
2023-04-20T11:06:04.127Z,10.20
2023-04-20T11:08:43.456Z,10.30
2023-04-20T11:11:25.478Z,10.40
2023-04-20T11:13:53.011Z,10.40
2023-04-20T11:16:20.488Z,10.30
2023-04-20T11:18:55.634Z,10.30
2023-04-20T11:21:23.270Z,10.50
2023-04-20T11:23:50.650Z,10.60
2023-04-20T11:26:17.645Z,10.50
2023-04-20T11:28:55.876Z,10.40
2023-04-20T11:31:23.666Z,10.30
2023-04-20T11:33:50.943Z,10.30
2023-04-20T11:36:26.466Z,10.40
2023-04-20T11:38:53.786Z,10.60
2023-04-20T11:41:21.706Z,10.90
2023-04-20T11:43:49.331Z,11.00
2023-04-20T11:46:18.270Z,11.00
2023-04-20T11:48:46.599Z,11.00
2023-04-20T11:51:14.544Z,11.00
2023-04-20T11:53:41.959Z,11.10
2023-04-20T11:56:09.090Z,11.50
2023-04-20T11:58:36.596Z,12.00
2023-04-20T12:01:05.409Z,12.20
2023-04-20T12:03:32.741Z,12.10
2023-04-20T12:05:59.847Z,12.20
2023-04-20T12:08:26.736Z,11.90
2023-04-20T12:10:54.446Z,11.70
2023-04-20T12:13:22.402Z,11.90
2023-04-20T12:15:49.390Z,12.10
2023-04-20T12:18:16.823Z,12.00
2023-04-20T12:20:46.120Z,11.90
2023-04-20T12:23:13.227Z,12.00
2023-04-20T12:25:41.398Z,12.20
2023-04-20T12:28:08.711Z,12.20
2023-04-20T12:30:35.884Z,12.10
2023-04-20T12:33:04.068Z,12.20
2023-04-20T12:35:31.232Z,12.50
2023-04-20T12:37:58.068Z,13.00
2023-04-20T12:40:25.288Z,13.40
2023-04-20T12:42:52.161Z,13.60
2023-04-20T12:45:19.263Z,13.70
2023-04-20T12:47:46.198Z,13.20
2023-04-20T12:50:13.353Z,12.90
2023-04-20T12:52:40.263Z,12.90
2023-04-20T12:55:08.075Z,13.20
2023-04-20T12:57:35.129Z,13.50
2023-04-20T13:00:06.090Z,13.50
2023-04-20T13:02:34.164Z,13.50
2023-04-20T13:05:01.859Z,13.50
2023-04-20T13:07:28.780Z,13.50
2023-04-20T13:09:55.819Z,13.80
2023-04-20T13:12:23.032Z,13.80
2023-04-20T13:14:51.188Z,13.90
2023-04-20T13:17:18.516Z,13.80
2023-04-20T13:19:49.605Z,13.80
2023-04-20T13:22:18.780Z,13.80
2023-04-20T13:24:46.594Z,14.00
2023-04-20T13:27:14.382Z,14.20
2023-04-20T13:29:41.635Z,14.10
2023-04-20T13:32:08.918Z,13.90
2023-04-20T13:34:36.187Z,13.50
2023-04-20T13:37:03.603Z,13.30
2023-04-20T13:39:30.719Z,13.10
2023-04-20T13:41:58.162Z,12.90
2023-04-20T13:44:25.284Z,12.80
2023-04-20T13:46:52.240Z,12.90
2023-04-20T13:49:22.647Z,13.10
2023-04-20T13:51:50.650Z,13.40
2023-04-20T13:54:18.146Z,13.50
2023-04-20T13:56:45.346Z,13.30
2023-04-20T13:59:12.540Z,13.50
2023-04-20T14:01:39.527Z,13.60
2023-04-20T14:04:06.665Z,13.80
2023-04-20T14:06:33.753Z,14.00
2023-04-20T14:09:00.889Z,14.00
2023-04-20T14:11:27.930Z,13.90
2023-04-20T14:13:54.840Z,13.60
2023-04-20T14:16:22.833Z,13.60
2023-04-20T14:18:49.908Z,14.00
2023-04-20T14:21:16.848Z,14.10
2023-04-20T14:23:44.014Z,14.10
2023-04-20T14:26:11.812Z,14.20
2023-04-20T14:28:39.071Z,14.30
2023-04-20T14:31:06.274Z,14.30
2023-04-20T14:33:33.236Z,14.40
2023-04-20T14:36:00.382Z,14.50
2023-04-20T14:38:27.282Z,14.50
2023-04-20T14:40:54.232Z,14.50
2023-04-20T14:43:21.082Z,14.40
2023-04-20T14:45:48.035Z,14.40
2023-04-20T14:48:14.883Z,14.30
2023-04-20T14:50:41.807Z,14.10
2023-04-20T14:53:09.376Z,14.10
2023-04-20T14:55:36.513Z,13.80
2023-04-20T14:58:03.464Z,13.80
2023-04-20T15:00:30.418Z,13.90
2023-04-20T15:02:57.530Z,14.10
2023-04-20T15:05:26.114Z,14.30
2023-04-20T15:07:54.073Z,14.50
2023-04-20T15:10:21.517Z,14.70
2023-04-20T15:12:48.935Z,14.80
2023-04-20T15:15:16.704Z,14.70
2023-04-20T15:17:44.791Z,14.30
2023-04-20T15:20:12.038Z,13.80
2023-04-20T15:22:38.987Z,13.60
2023-04-20T15:25:06.303Z,13.40
2023-04-20T15:27:34.771Z,13.30
2023-04-20T15:30:02.092Z,13.20
2023-04-20T15:32:33.914Z,13.00
2023-04-20T15:35:01.361Z,13.10
2023-04-20T15:37:28.859Z,13.10
2023-04-20T15:39:56.102Z,12.90
2023-04-20T15:42:22.999Z,12.90
2023-04-20T15:44:49.964Z,13.00
2023-04-20T15:47:16.827Z,13.00
2023-04-20T15:49:43.701Z,13.10
2023-04-20T15:52:10.609Z,13.10
2023-04-20T15:54:38.246Z,13.10
2023-04-20T15:57:05.453Z,13.10
2023-04-20T15:59:32.478Z,12.90
2023-04-20T16:01:59.538Z,12.90
2023-04-20T16:04:27.056Z,12.80
2023-04-20T16:06:54.372Z,12.80
2023-04-20T16:09:23.618Z,13.00
2023-04-20T16:11:50.825Z,13.10
2023-04-20T16:14:18.364Z,13.30
2023-04-20T16:16:45.513Z,13.50
2023-04-20T16:19:13.966Z,13.60
2023-04-20T16:21:41.068Z,13.50
2023-04-20T16:24:07.984Z,13.40
2023-04-20T16:26:34.962Z,13.10
2023-04-20T16:29:02.004Z,12.90
2023-04-20T16:31:29.615Z,12.80
2023-04-20T16:36:27.246Z,12.80
2023-04-20T16:38:55.440Z,12.70
2023-04-20T16:41:23.140Z,12.60
2023-04-20T16:43:50.470Z,12.60
2023-04-20T16:46:19.058Z,12.60
2023-04-20T16:48:46.086Z,12.60
2023-04-20T16:51:13.021Z,12.70
2023-04-20T16:53:39.896Z,12.80
2023-04-20T16:56:06.787Z,12.90
2023-04-20T16:58:34.296Z,13.10
2023-04-20T17:01:01.284Z,13.10
2023-04-20T17:03:28.595Z,13.10
2023-04-20T17:05:55.741Z,13.00
2023-04-20T17:08:25.647Z,12.80
2023-04-20T17:10:52.849Z,12.80
2023-04-20T17:13:20.608Z,12.80
2023-04-20T17:15:47.827Z,12.70
2023-04-20T17:18:15.359Z,12.70
2023-04-20T17:20:42.694Z,12.70
2023-04-20T17:23:10.023Z,12.80
2023-04-20T17:25:37.320Z,12.60
2023-04-20T17:28:04.485Z,12.60
2023-04-20T17:30:31.512Z,12.50
2023-04-20T17:33:01.025Z,12.40
2023-04-20T17:35:27.985Z,12.30
2023-04-20T17:37:55.064Z,12.30
2023-04-20T17:40:21.894Z,12.30
2023-04-20T17:42:48.828Z,12.10
2023-04-20T17:45:15.678Z,12.10
2023-04-20T17:47:42.686Z,12.00
2023-04-20T17:50:11.770Z,12.00
2023-04-20T17:52:38.973Z,12.00
2023-04-20T17:55:06.601Z,11.90
2023-04-20T17:57:33.461Z,11.70
2023-04-20T18:00:00.412Z,11.50
2023-04-20T18:02:27.583Z,11.30
2023-04-20T18:04:57.542Z,11.20
2023-04-20T18:07:24.613Z,11.10
2023-04-20T18:09:51.730Z,11.10
2023-04-20T18:12:18.548Z,11.00
2023-04-20T18:14:45.963Z,10.90
2023-04-20T18:17:12.852Z,10.80
2023-04-20T18:19:41.017Z,10.80
2023-04-20T18:22:08.855Z,10.60
2023-04-20T18:24:35.813Z,10.50
2023-04-20T18:27:02.794Z,10.50
2023-04-20T18:29:29.915Z,10.40
2023-04-20T18:31:59.426Z,10.40
2023-04-20T18:34:30.072Z,10.50
2023-04-20T18:36:57.085Z,10.30
2023-04-20T18:39:25.359Z,10.20
2023-04-20T18:41:52.255Z,10.20
2023-04-20T18:44:19.518Z,10.10
2023-04-20T18:46:46.782Z,10.10
2023-04-20T18:49:14.579Z,10.00
2023-04-20T18:51:41.474Z,10.00
2023-04-20T18:54:08.297Z,10.00
2023-04-20T18:56:36.897Z,9.90
2023-04-20T18:59:04.668Z,9.80
2023-04-20T19:01:33.324Z,9.80
2023-04-20T19:04:00.597Z,9.80
2023-04-20T19:06:28.035Z,9.70
2023-04-20T19:08:55.988Z,9.70
2023-04-20T19:11:23.163Z,9.70
2023-04-20T19:13:50.131Z,9.60
2023-04-20T19:16:17.159Z,9.60
2023-04-20T19:18:44.343Z,9.40
2023-04-20T19:21:14.252Z,9.40
2023-04-20T19:23:41.601Z,9.40
2023-04-20T19:26:08.576Z,9.40
2023-04-20T19:28:35.406Z,9.40
2023-04-20T19:31:02.407Z,9.30
2023-04-20T19:33:30.372Z,9.30
2023-04-20T19:35:57.187Z,9.30
2023-04-20T19:38:24.472Z,9.20
2023-04-20T19:40:51.347Z,9.20
2023-04-20T19:43:18.152Z,9.20
2023-04-20T19:45:45.040Z,9.20
2023-04-20T19:48:12.379Z,9.20
2023-04-20T19:50:39.343Z,9.20
2023-04-20T19:53:06.894Z,9.20
2023-04-20T19:55:34.284Z,9.20
2023-04-20T19:58:01.344Z,9.10
2023-04-20T20:00:28.181Z,9.10
2023-04-20T20:02:55.191Z,9.10
2023-04-20T20:05:22.296Z,9.00
2023-04-20T20:07:49.149Z,9.00
2023-04-20T20:10:16.027Z,8.90
2023-04-20T20:12:42.881Z,9.00
2023-04-20T20:15:09.859Z,9.00
2023-04-20T20:17:37.040Z,9.00
2023-04-20T20:20:06.118Z,9.00
2023-04-20T20:22:33.844Z,8.90
2023-04-20T20:25:01.435Z,8.90
2023-04-20T20:27:28.664Z,9.00
2023-04-20T20:29:55.704Z,9.00
2023-04-20T20:32:22.723Z,8.90
2023-04-20T20:34:49.669Z,8.90
2023-04-20T20:37:16.534Z,8.90
2023-04-20T20:39:43.663Z,8.90
2023-04-20T20:42:12.539Z,8.90
2023-04-20T20:44:40.042Z,9.00
2023-04-20T20:47:06.971Z,9.00
2023-04-20T20:49:33.950Z,8.90
2023-04-20T20:52:02.315Z,8.90
2023-04-20T20:54:29.227Z,8.90
2023-04-20T20:56:56.049Z,8.90
2023-04-20T20:59:22.903Z,9.00
2023-04-20T21:01:49.765Z,9.00
2023-04-20T21:04:16.961Z,9.00
2023-04-20T21:06:43.806Z,9.00
2023-04-20T21:09:11.063Z,8.90
2023-04-20T21:11:37.861Z,8.80
2023-04-20T21:14:05.020Z,9.00
2023-04-20T21:16:31.860Z,9.00
2023-04-20T21:18:58.734Z,8.90
2023-04-20T21:21:25.656Z,8.90
2023-04-20T21:23:52.506Z,8.90
2023-04-20T21:26:19.355Z,8.90
2023-04-20T21:28:46.179Z,9.00
2023-04-20T21:31:13.098Z,8.90
2023-04-20T21:33:40.205Z,8.90
2023-04-20T21:36:07.533Z,8.90
2023-04-20T21:38:34.838Z,8.90
2023-04-20T21:41:01.884Z,9.00
2023-04-20T21:43:28.743Z,8.90
2023-04-20T21:45:55.600Z,9.00
2023-04-20T21:48:22.887Z,8.90
2023-04-20T21:50:49.748Z,9.00
2023-04-20T21:53:16.593Z,9.00
2023-04-20T21:55:43.489Z,9.00
2023-04-20T21:58:10.365Z,8.90
2023-04-20T22:00:37.403Z,8.90
2023-04-20T22:03:04.409Z,8.90
2023-04-20T22:05:31.614Z,8.90
2023-04-20T22:07:58.527Z,8.90
2023-04-20T22:10:26.201Z,8.90
2023-04-20T22:12:53.021Z,8.80
2023-04-20T22:15:22.248Z,8.80
2023-04-20T22:17:49.633Z,8.80
2023-04-20T22:20:17.233Z,8.70
2023-04-20T22:22:44.092Z,8.80
2023-04-20T22:25:11.167Z,8.90
2023-04-20T22:27:38.709Z,8.90
2023-04-20T22:30:06.539Z,8.80
2023-04-20T22:32:33.525Z,8.70
2023-04-20T22:35:00.561Z,8.70
2023-04-20T22:37:27.357Z,8.70
2023-04-20T22:39:54.253Z,8.60
2023-04-20T22:42:21.387Z,8.70
2023-04-20T22:44:48.504Z,8.70
2023-04-20T22:47:15.615Z,8.70
2023-04-20T22:49:42.497Z,8.60
2023-04-20T22:52:09.438Z,8.60
2023-04-20T22:54:37.609Z,8.60
2023-04-20T22:57:04.575Z,8.70
2023-04-20T22:59:31.489Z,8.60
2023-04-20T23:01:58.569Z,8.60
2023-04-20T23:04:25.663Z,8.70
2023-04-20T23:06:53.004Z,8.70
2023-04-20T23:09:20.802Z,8.80
2023-04-20T23:11:47.918Z,8.80
2023-04-20T23:14:15.372Z,8.70
2023-04-20T23:16:42.277Z,8.70
2023-04-20T23:19:09.487Z,8.70
2023-04-20T23:21:36.703Z,8.70
2023-04-20T23:24:03.625Z,8.60
2023-04-20T23:26:30.578Z,8.60
2023-04-20T23:28:57.391Z,8.60
2023-04-20T23:31:24.867Z,8.60
2023-04-20T23:33:52.872Z,8.60
2023-04-20T23:36:19.681Z,8.60
2023-04-20T23:38:46.828Z,8.70
2023-04-20T23:41:15.206Z,8.60
2023-04-20T23:43:43.015Z,8.60
2023-04-20T23:46:09.938Z,8.60
2023-04-20T23:48:36.863Z,8.50
2023-04-20T23:51:04.107Z,8.50
2023-04-20T23:53:31.023Z,8.60
2023-04-20T23:56:00.058Z,8.60
2023-04-20T23:58:27.977Z,8.60
